sensor_id;sensor_type;location;lat;lon;timestamp;P1;durP1;ratioP1;P2;durP2;ratioP2
19434;SDS011;9853;50.848;4.108;2024-02-26T00:36:51;0.27;;;0.20;;
19434;SDS011;9853;50.848;4.108;2024-02-26T00:45:37;0.37;;;0.10;;
19434;SDS011;9853;50.848;4.108;2024-02-26T00:53:29;0.47;;;0.20;;
19434;SDS011;9853;50.848;4.108;2024-02-26T01:15:57;1.03;;;0.67;;
19434;SDS011;9853;50.848;4.108;2024-02-26T01:23:55;0.43;;;0.20;;
19434;SDS011;9853;50.848;4.108;2024-02-26T01:26:23;3.57;;;0.60;;
19434;SDS011;9853;50.848;4.108;2024-02-26T01:37:55;4.63;;;0.67;;
19434;SDS011;9853;50.848;4.108;2024-02-26T01:39:58;1.30;;;0.60;;
19434;SDS011;9853;50.848;4.108;2024-02-26T01:42:15;1.23;;;0.30;;
19434;SDS011;9853;50.848;4.108;2024-02-26T01:50:25;0.23;;;0.20;;
19434;SDS011;9853;50.848;4.108;2024-02-26T01:52:54;0.10;;;0.10;;
19434;SDS011;9853;50.848;4.108;2024-02-26T01:55:24;0.53;;;0.40;;
19434;SDS011;9853;50.848;4.108;2024-02-26T02:00:49;0.33;;;0.20;;
19434;SDS011;9853;50.848;4.108;2024-02-26T02:02:53;0.93;;;0.30;;
19434;SDS011;9853;50.848;4.108;2024-02-26T02:05:19;0.30;;;0.20;;
19434;SDS011;9853;50.848;4.108;2024-02-26T02:07:42;0.57;;;0.30;;
19434;SDS011;9853;50.848;4.108;2024-02-26T02:09:55;1.70;;;0.20;;
19434;SDS011;9853;50.848;4.108;2024-02-26T02:12:02;0.23;;;0.20;;
19434;SDS011;9853;50.848;4.108;2024-02-26T02:14:38;0.20;;;0.20;;
19434;SDS011;9853;50.848;4.108;2024-02-26T02:16:42;1.33;;;0.30;;
19434;SDS011;9853;50.848;4.108;2024-02-26T02:18:43;0.83;;;0.33;;
19434;SDS011;9853;50.848;4.108;2024-02-26T02:21:18;0.70;;;0.20;;
19434;SDS011;9853;50.848;4.108;2024-02-26T02:27:05;0.83;;;0.43;;
19434;SDS011;9853;50.848;4.108;2024-02-26T02:28:52;0.20;;;0.13;;
19434;SDS011;9853;50.848;4.108;2024-02-26T02:34:42;0.20;;;0.10;;
19434;SDS011;9853;50.848;4.108;2024-02-26T02:36:53;0.90;;;0.30;;
19434;SDS011;9853;50.848;4.108;2024-02-26T02:39:28;0.20;;;0.20;;
19434;SDS011;9853;50.848;4.108;2024-02-26T02:41:45;0.10;;;0.10;;
19434;SDS011;9853;50.848;4.108;2024-02-26T02:44:40;0.40;;;0.40;;
19434;SDS011;9853;50.848;4.108;2024-02-26T03:01:13;1.13;;;0.10;;
19434;SDS011;9853;50.848;4.108;2024-02-26T03:07:08;0.27;;;0.20;;
19434;SDS011;9853;50.848;4.108;2024-02-26T03:22:50;0.20;;;0.20;;
19434;SDS011;9853;50.848;4.108;2024-02-26T03:35:14;0.27;;;0.10;;
19434;SDS011;9853;50.848;4.108;2024-02-26T03:41:27;0.83;;;0.30;;
19434;SDS011;9853;50.848;4.108;2024-02-26T03:43:54;1.30;;;0.60;;
19434;SDS011;9853;50.848;4.108;2024-02-26T03:51:11;0.60;;;0.60;;
19434;SDS011;9853;50.848;4.108;2024-02-26T04:51:25;4.00;;;2.33;;
19434;SDS011;9853;50.848;4.108;2024-02-26T04:57:11;4.80;;;2.83;;
19434;SDS011;9853;50.848;4.108;2024-02-26T05:07:07;9.70;;;3.00;;
19434;SDS011;9853;50.848;4.108;2024-02-26T05:23:40;5.47;;;3.40;;
19434;SDS011;9853;50.848;4.108;2024-02-26T05:49:41;9.23;;;5.70;;
19434;SDS011;9853;50.848;4.108;2024-02-26T05:52:39;7.90;;;4.50;;
19434;SDS011;9853;50.848;4.108;2024-02-26T05:55:26;8.60;;;5.00;;
19434;SDS011;9853;50.848;4.108;2024-02-26T05:58:26;8.93;;;4.87;;
19434;SDS011;9853;50.848;4.108;2024-02-26T07:01:04;11.20;;;7.20;;
19434;SDS011;9853;50.848;4.108;2024-02-26T07:03:15;15.00;;;6.73;;
19434;SDS011;9853;50.848;4.108;2024-02-26T07:05:23;12.87;;;6.97;;
19434;SDS011;9853;50.848;4.108;2024-02-26T07:07:48;9.93;;;5.73;;
19434;SDS011;9853;50.848;4.108;2024-02-26T07:10:19;9.63;;;5.73;;
19434;SDS011;9853;50.848;4.108;2024-02-26T07:12:21;9.27;;;3.47;;
19434;SDS011;9853;50.848;4.108;2024-02-26T07:14:52;10.50;;;6.53;;
19434;SDS011;9853;50.848;4.108;2024-02-26T07:16:59;8.47;;;5.27;;
19434;SDS011;9853;50.848;4.108;2024-02-26T07:19:13;9.63;;;6.50;;
19434;SDS011;9853;50.848;4.108;2024-02-26T07:21:21;12.80;;;6.93;;
19434;SDS011;9853;50.848;4.108;2024-02-26T07:23:34;9.83;;;5.20;;
19434;SDS011;9853;50.848;4.108;2024-02-26T07:25:41;10.37;;;4.60;;
19434;SDS011;9853;50.848;4.108;2024-02-26T07:27:57;11.73;;;6.33;;
19434;SDS011;9853;50.848;4.108;2024-02-26T07:30:01;10.20;;;5.63;;
19434;SDS011;9853;50.848;4.108;2024-02-26T07:32:43;16.10;;;8.93;;
19434;SDS011;9853;50.848;4.108;2024-02-26T07:35:09;13.30;;;7.43;;
19434;SDS011;9853;50.848;4.108;2024-02-26T07:40:20;9.83;;;5.70;;
19434;SDS011;9853;50.848;4.108;2024-02-26T07:42:23;9.90;;;6.27;;
19434;SDS011;9853;50.848;4.108;2024-02-26T07:45:00;8.97;;;4.73;;
19434;SDS011;9853;50.848;4.108;2024-02-26T07:47:03;10.13;;;5.93;;
19434;SDS011;9853;50.848;4.108;2024-02-26T07:49:50;13.87;;;8.27;;
19434;SDS011;9853;50.848;4.108;2024-02-26T07:55:25;10.23;;;6.30;;
19434;SDS011;9853;50.848;4.108;2024-02-26T07:57:32;11.73;;;7.07;;
19434;SDS011;9853;50.848;4.108;2024-02-26T07:59:44;6.47;;;3.63;;
19434;SDS011;9853;50.848;4.108;2024-02-26T08:01:50;11.30;;;5.27;;
19434;SDS011;9853;50.848;4.108;2024-02-26T08:03:54;9.50;;;5.77;;
19434;SDS011;9853;50.848;4.108;2024-02-26T08:05:58;7.37;;;4.27;;
19434;SDS011;9853;50.848;4.108;2024-02-26T08:08:08;13.43;;;6.30;;
19434;SDS011;9853;50.848;4.108;2024-02-26T08:10:12;13.27;;;6.87;;
19434;SDS011;9853;50.848;4.108;2024-02-26T08:12:46;9.70;;;5.33;;
19434;SDS011;9853;50.848;4.108;2024-02-26T08:15:15;9.80;;;5.17;;
19434;SDS011;9853;50.848;4.108;2024-02-26T08:17:26;11.77;;;6.70;;
19434;SDS011;9853;50.848;4.108;2024-02-26T08:19:41;8.97;;;5.47;;
19434;SDS011;9853;50.848;4.108;2024-02-26T08:22:06;8.10;;;4.97;;
19434;SDS011;9853;50.848;4.108;2024-02-26T08:27:20;11.13;;;5.23;;
19434;SDS011;9853;50.848;4.108;2024-02-26T08:29:52;6.73;;;3.90;;
19434;SDS011;9853;50.848;4.108;2024-02-26T08:32:47;10.37;;;5.70;;
19434;SDS011;9853;50.848;4.108;2024-02-26T08:35:10;9.23;;;5.87;;
19434;SDS011;9853;50.848;4.108;2024-02-26T08:37:19;7.53;;;4.43;;
19434;SDS011;9853;50.848;4.108;2024-02-26T08:39:20;9.23;;;6.27;;
19434;SDS011;9853;50.848;4.108;2024-02-26T08:41:43;7.13;;;4.47;;
19434;SDS011;9853;50.848;4.108;2024-02-26T08:43:46;7.90;;;4.87;;
19434;SDS011;9853;50.848;4.108;2024-02-26T08:45:52;8.60;;;5.10;;
19434;SDS011;9853;50.848;4.108;2024-02-26T08:47:55;6.00;;;3.47;;
19434;SDS011;9853;50.848;4.108;2024-02-26T08:50:06;7.77;;;4.10;;
19434;SDS011;9853;50.848;4.108;2024-02-26T08:52:09;7.73;;;3.90;;
19434;SDS011;9853;50.848;4.108;2024-02-26T08:54:10;7.60;;;4.60;;
19434;SDS011;9853;50.848;4.108;2024-02-26T08:56:34;3.53;;;2.53;;
19434;SDS011;9853;50.848;4.108;2024-02-26T08:59:04;5.17;;;3.23;;
19434;SDS011;9853;50.848;4.108;2024-02-26T09:01:04;8.10;;;3.67;;
19434;SDS011;9853;50.848;4.108;2024-02-26T09:03:23;6.17;;;4.13;;
19434;SDS011;9853;50.848;4.108;2024-02-26T09:05:33;8.67;;;4.03;;
19434;SDS011;9853;50.848;4.108;2024-02-26T09:07:42;6.57;;;3.87;;
19434;SDS011;9853;50.848;4.108;2024-02-26T09:10:20;6.97;;;4.80;;
19434;SDS011;9853;50.848;4.108;2024-02-26T09:12:33;10.03;;;4.73;;
19434;SDS011;9853;50.848;4.108;2024-02-26T09:15:09;7.87;;;5.07;;
19434;SDS011;9853;50.848;4.108;2024-02-26T09:17:12;6.43;;;3.97;;
19434;SDS011;9853;50.848;4.108;2024-02-26T09:19:29;7.13;;;4.13;;
19434;SDS011;9853;50.848;4.108;2024-02-26T09:21:30;7.50;;;4.50;;
19434;SDS011;9853;50.848;4.108;2024-02-26T09:23:33;9.63;;;4.47;;
19434;SDS011;9853;50.848;4.108;2024-02-26T09:25:35;7.03;;;4.17;;
19434;SDS011;9853;50.848;4.108;2024-02-26T09:27:42;6.43;;;4.30;;
19434;SDS011;9853;50.848;4.108;2024-02-26T09:30:06;8.07;;;4.70;;
19434;SDS011;9853;50.848;4.108;2024-02-26T09:34:54;6.97;;;3.87;;
19434;SDS011;9853;50.848;4.108;2024-02-26T09:37:11;6.83;;;4.30;;
19434;SDS011;9853;50.848;4.108;2024-02-26T09:39:18;8.47;;;4.97;;
19434;SDS011;9853;50.848;4.108;2024-02-26T09:41:40;9.23;;;4.23;;
19434;SDS011;9853;50.848;4.108;2024-02-26T09:44:23;9.13;;;4.73;;
19434;SDS011;9853;50.848;4.108;2024-02-26T10:14:52;5.80;;;3.43;;
